createdAt,value
2018-08-30T00:00:51.483Z,39.50
2018-08-30T00:01:51.471Z,39.10
2018-08-30T00:02:51.458Z,39.70
2018-08-30T00:03:51.447Z,40.20
2018-08-30T00:04:51.437Z,41.40
2018-08-30T00:05:51.419Z,39.20
2018-08-30T00:06:51.414Z,39.20
2018-08-30T00:07:51.395Z,38.90
2018-08-30T00:08:51.387Z,38.60
2018-08-30T00:09:51.373Z,38.00
2018-08-30T00:10:51.358Z,37.50
2018-08-30T00:11:51.348Z,36.90
2018-08-30T00:12:51.332Z,32.20
2018-08-30T00:13:51.321Z,32.40
2018-08-30T00:14:51.306Z,31.90
2018-08-30T00:15:51.295Z,31.20
2018-08-30T00:16:51.284Z,30.20
2018-08-30T00:17:51.271Z,32.00
2018-08-30T00:18:51.257Z,31.40
2018-08-30T00:19:51.244Z,29.40
2018-08-30T00:20:51.231Z,29.70
2018-08-30T00:21:51.227Z,29.00
2018-08-30T00:22:51.203Z,30.40
2018-08-30T00:23:51.202Z,28.40
2018-08-30T00:24:51.182Z,27.60
2018-08-30T00:25:51.172Z,27.60
2018-08-30T00:26:51.153Z,26.90
2018-08-30T00:27:51.143Z,25.50
2018-08-30T00:28:51.129Z,26.20
2018-08-30T00:29:51.113Z,24.90
2018-08-30T00:30:51.102Z,23.80
2018-08-30T00:31:51.095Z,24.60
2018-08-30T00:32:51.078Z,24.50
2018-08-30T00:33:51.061Z,23.50
2018-08-30T00:34:51.048Z,23.10
2018-08-30T00:35:51.036Z,22.80
2018-08-30T00:36:51.025Z,23.00
2018-08-30T00:37:51.017Z,22.50
2018-08-30T00:38:50.996Z,22.30
2018-08-30T00:39:50.985Z,22.80
2018-08-30T00:40:50.974Z,21.90
2018-08-30T00:41:50.960Z,21.50
2018-08-30T00:42:50.943Z,21.70
2018-08-30T00:43:50.931Z,20.80
2018-08-30T00:44:50.918Z,20.10
2018-08-30T00:45:50.908Z,21.00
2018-08-30T00:46:50.892Z,19.50
2018-08-30T00:47:50.882Z,20.00
2018-08-30T00:48:50.866Z,20.00
2018-08-30T00:49:50.853Z,19.30
2018-08-30T00:50:50.837Z,17.80
2018-08-30T00:51:50.826Z,16.20
2018-08-30T00:52:50.816Z,13.20
2018-08-30T00:53:50.801Z,12.80
2018-08-30T00:54:50.790Z,11.90
2018-08-30T00:55:50.776Z,11.10
2018-08-30T00:56:50.761Z,11.50
2018-08-30T00:57:50.751Z,11.50
2018-08-30T00:58:50.735Z,10.90
2018-08-30T00:59:50.724Z,11.00
2018-08-30T01:00:50.707Z,10.50
2018-08-30T01:01:50.698Z,10.70
2018-08-30T01:02:50.691Z,11.10
2018-08-30T01:03:50.674Z,10.50
2018-08-30T01:04:50.661Z,10.30
2018-08-30T01:05:50.648Z,10.80
2018-08-30T01:06:50.627Z,10.70
2018-08-30T01:07:50.616Z,10.50
2018-08-30T01:08:50.604Z,10.70
2018-08-30T01:09:50.588Z,10.40
2018-08-30T01:10:50.578Z,11.00
2018-08-30T01:11:50.564Z,10.30
2018-08-30T01:12:50.550Z,10.70
2018-08-30T01:13:50.536Z,10.30
2018-08-30T01:14:50.525Z,11.00
2018-08-30T01:15:50.508Z,10.80
2018-08-30T01:16:50.497Z,10.60
2018-08-30T01:17:50.482Z,10.90
2018-08-30T01:18:50.469Z,11.30
2018-08-30T01:19:50.454Z,11.80
2018-08-30T01:20:50.441Z,11.40
2018-08-30T01:21:50.429Z,12.00
2018-08-30T01:22:50.417Z,11.20
2018-08-30T01:23:50.400Z,11.30
2018-08-30T01:24:50.386Z,12.40
2018-08-30T01:25:50.374Z,12.30
2018-08-30T01:26:50.359Z,12.30
2018-08-30T01:27:50.348Z,12.80
2018-08-30T01:28:50.332Z,13.80
2018-08-30T01:29:50.319Z,13.50
2018-08-30T01:30:50.310Z,14.00
2018-08-30T01:31:50.294Z,13.10
2018-08-30T01:32:50.277Z,13.90
2018-08-30T01:33:50.265Z,14.60
2018-08-30T01:34:50.252Z,14.60
2018-08-30T01:35:50.243Z,14.50
2018-08-30T01:36:50.225Z,14.80
2018-08-30T01:37:50.212Z,14.70
2018-08-30T01:38:50.201Z,15.10
2018-08-30T01:39:50.184Z,15.30
2018-08-30T01:40:50.171Z,15.60
2018-08-30T01:41:50.156Z,15.60
2018-08-30T01:42:50.147Z,15.60
2018-08-30T01:43:50.130Z,15.70
2018-08-30T01:44:50.119Z,16.20
2018-08-30T01:45:50.104Z,16.40
2018-08-30T01:46:50.088Z,16.00
2018-08-30T01:47:50.081Z,16.60
2018-08-30T01:48:50.060Z,17.00
2018-08-30T01:49:50.052Z,17.10
2018-08-30T01:50:50.036Z,16.90
2018-08-30T01:51:50.026Z,17.50
2018-08-30T01:52:50.006Z,18.10
2018-08-30T01:53:50.000Z,17.20
2018-08-30T01:54:49.981Z,18.20
2018-08-30T01:55:49.966Z,19.00
2018-08-30T01:56:49.955Z,17.50
2018-08-30T01:57:49.941Z,18.00
2018-08-30T01:58:49.927Z,18.00
2018-08-30T01:59:49.912Z,18.10
2018-08-30T02:00:49.906Z,17.50
2018-08-30T02:01:49.887Z,18.60
2018-08-30T02:02:49.872Z,18.90
2018-08-30T02:03:49.863Z,17.70
2018-08-30T02:04:49.846Z,18.20
2018-08-30T02:05:49.833Z,18.20
2018-08-30T02:06:49.818Z,18.10
2018-08-30T02:07:49.810Z,19.30
2018-08-30T02:08:49.795Z,18.80
2018-08-30T02:09:49.779Z,18.80
2018-08-30T02:10:49.764Z,19.60
2018-08-30T02:11:49.755Z,18.70
2018-08-30T02:12:49.737Z,19.50
2018-08-30T02:13:49.728Z,19.40
2018-08-30T02:14:49.714Z,20.80
2018-08-30T02:15:49.698Z,20.10
2018-08-30T02:16:49.685Z,20.40
2018-08-30T02:17:49.671Z,20.10
2018-08-30T02:18:49.656Z,19.70
2018-08-30T02:19:49.644Z,20.50
2018-08-30T02:20:49.659Z,20.40
2018-08-30T02:21:49.620Z,21.70
2018-08-30T02:22:49.602Z,20.60
2018-08-30T02:23:49.591Z,21.50
2018-08-30T02:24:49.586Z,20.80
2018-08-30T02:25:49.566Z,21.30
2018-08-30T02:26:49.553Z,21.60
2018-08-30T02:27:49.537Z,22.20
2018-08-30T02:28:49.522Z,21.40
2018-08-30T02:29:49.510Z,22.00
2018-08-30T02:30:49.496Z,21.50
2018-08-30T02:31:49.484Z,22.30
2018-08-30T02:32:49.471Z,22.70
2018-08-30T02:33:49.459Z,22.60
2018-08-30T02:34:49.443Z,22.20
2018-08-30T02:35:49.432Z,22.40
2018-08-30T02:36:49.419Z,23.20
2018-08-30T02:37:49.404Z,22.50
2018-08-30T02:38:49.389Z,22.50
2018-08-30T02:39:49.390Z,22.70
2018-08-30T02:40:49.361Z,21.30
2018-08-30T02:41:49.363Z,22.70
2018-08-30T02:42:49.336Z,23.40
2018-08-30T02:43:49.324Z,23.80
2018-08-30T02:44:49.312Z,23.10
2018-08-30T02:45:49.296Z,23.50
2018-08-30T02:46:49.283Z,23.80
2018-08-30T02:47:49.271Z,23.80
2018-08-30T02:48:49.255Z,23.30
2018-08-30T02:49:49.244Z,24.40
2018-08-30T02:50:49.228Z,24.30
2018-08-30T02:51:49.213Z,23.20
2018-08-30T02:52:49.202Z,22.90
2018-08-30T02:53:49.190Z,23.70
2018-08-30T02:54:49.178Z,24.70
2018-08-30T02:55:49.164Z,24.60
2018-08-30T02:56:49.152Z,24.80
2018-08-30T02:57:49.136Z,24.50
2018-08-30T02:58:49.119Z,24.10
2018-08-30T02:59:49.106Z,24.10
2018-08-30T03:00:49.092Z,25.40
2018-08-30T03:01:49.086Z,25.60
2018-08-30T03:02:49.064Z,24.60
2018-08-30T03:03:49.061Z,25.00
2018-08-30T03:04:49.039Z,24.90
2018-08-30T03:05:49.029Z,25.50
2018-08-30T03:06:49.017Z,25.40
2018-08-30T03:07:49.002Z,24.50
2018-08-30T03:08:48.990Z,25.10
2018-08-30T03:09:48.972Z,25.60
2018-08-30T03:10:48.958Z,26.30
2018-08-30T03:11:48.950Z,25.50
2018-08-30T03:12:48.937Z,25.60
2018-08-30T03:13:48.924Z,26.10
2018-08-30T03:14:48.911Z,26.20
2018-08-30T03:15:48.895Z,25.00
2018-08-30T03:16:48.882Z,25.40
2018-08-30T03:17:48.868Z,25.50
2018-08-30T03:18:48.855Z,26.10
2018-08-30T03:19:48.840Z,26.10
2018-08-30T03:20:48.825Z,25.00
2018-08-30T03:21:48.813Z,26.00
2018-08-30T03:22:48.798Z,24.80
2018-08-30T03:23:48.791Z,25.40
2018-08-30T03:24:48.773Z,24.40
2018-08-30T03:25:48.761Z,26.00
2018-08-30T03:26:48.745Z,24.50
2018-08-30T03:27:48.733Z,24.20
2018-08-30T03:28:48.721Z,24.80
2018-08-30T03:29:48.703Z,24.70
2018-08-30T03:30:48.712Z,25.80
2018-08-30T03:31:48.680Z,25.80
2018-08-30T03:32:48.667Z,24.60
2018-08-30T03:33:48.656Z,24.80
2018-08-30T03:34:48.637Z,25.20
2018-08-30T03:35:48.624Z,24.20
2018-08-30T03:36:48.616Z,24.60
2018-08-30T03:37:48.598Z,25.10
2018-08-30T03:38:48.583Z,26.00
2018-08-30T03:39:48.572Z,24.60
2018-08-30T03:40:48.556Z,24.20
2018-08-30T03:41:48.543Z,25.00
2018-08-30T03:42:48.531Z,23.50
2018-08-30T03:43:48.516Z,23.70
2018-08-30T03:44:48.502Z,24.30
2018-08-30T03:45:48.492Z,24.30
2018-08-30T03:46:48.490Z,25.00
2018-08-30T03:47:48.467Z,23.90
2018-08-30T03:48:48.449Z,24.40
2018-08-30T03:49:48.443Z,24.60
2018-08-30T03:50:48.423Z,25.60
2018-08-30T03:51:48.408Z,26.00
2018-08-30T03:52:48.393Z,24.70
2018-08-30T03:53:48.382Z,25.40
2018-08-30T03:54:48.367Z,24.40
2018-08-30T03:55:48.353Z,24.60
2018-08-30T03:56:48.340Z,24.30
2018-08-30T03:57:48.328Z,23.80
2018-08-30T03:58:48.311Z,25.70
2018-08-30T03:59:48.298Z,24.20
2018-08-30T04:00:48.292Z,25.30
2018-08-30T04:01:48.273Z,25.50
2018-08-30T04:02:48.260Z,25.20
2018-08-30T04:03:48.248Z,24.00
2018-08-30T04:04:48.233Z,24.90
2018-08-30T04:05:48.219Z,23.30
2018-08-30T04:06:48.210Z,23.90
2018-08-30T04:07:48.193Z,25.10
2018-08-30T04:08:48.179Z,24.50
2018-08-30T04:09:48.184Z,25.00
2018-08-30T04:10:48.155Z,24.50
2018-08-30T04:11:48.145Z,25.70
2018-08-30T04:12:48.124Z,25.30
2018-08-30T04:13:48.112Z,24.90
2018-08-30T04:14:48.104Z,24.60
2018-08-30T04:15:48.087Z,25.40
2018-08-30T04:16:48.071Z,25.40
2018-08-30T04:17:48.070Z,23.30
2018-08-30T04:18:48.045Z,22.90
2018-08-30T04:19:48.030Z,24.70
2018-08-30T04:20:48.017Z,24.80
2018-08-30T04:21:48.003Z,24.00
2018-08-30T04:22:47.988Z,25.60
2018-08-30T04:23:47.974Z,23.40
2018-08-30T04:24:47.965Z,24.40
2018-08-30T04:25:47.950Z,24.20
2018-08-30T04:26:47.944Z,24.30
2018-08-30T04:27:47.921Z,23.80
2018-08-30T04:28:47.912Z,24.70
2018-08-30T04:29:47.906Z,24.10
2018-08-30T04:30:47.882Z,24.70
2018-08-30T04:31:47.868Z,23.70
2018-08-30T04:32:47.855Z,25.20
2018-08-30T04:33:47.841Z,25.10
2018-08-30T04:34:47.828Z,24.70
2018-08-30T04:35:47.821Z,24.10
2018-08-30T04:36:47.807Z,24.10
2018-08-30T04:37:47.791Z,24.30
2018-08-30T04:38:47.779Z,24.10
2018-08-30T04:39:47.763Z,24.30
2018-08-30T04:40:47.748Z,23.80
2018-08-30T04:41:47.740Z,26.00
2018-08-30T04:42:47.799Z,25.10
2018-08-30T04:43:47.709Z,25.30
2018-08-30T04:44:47.696Z,25.50
2018-08-30T04:45:47.684Z,26.50
2018-08-30T04:46:47.665Z,31.10
2018-08-30T04:47:47.653Z,30.40
2018-08-30T04:48:47.639Z,26.40
2018-08-30T04:49:47.633Z,88.80
2018-08-30T04:50:47.611Z,30.50
2018-08-30T04:51:47.599Z,25.20
2018-08-30T04:52:47.591Z,24.70
2018-08-30T04:53:47.571Z,25.20
2018-08-30T04:54:47.565Z,25.60
2018-08-30T04:55:47.542Z,25.40
2018-08-30T04:56:47.531Z,24.80
2018-08-30T04:57:47.521Z,25.40
2018-08-30T04:58:47.509Z,25.10
2018-08-30T04:59:47.495Z,25.70
2018-08-30T05:00:47.479Z,25.60
2018-08-30T05:01:47.503Z,25.20
2018-08-30T05:02:47.448Z,25.60
2018-08-30T05:03:47.434Z,25.40
2018-08-30T05:04:47.421Z,26.00
2018-08-30T05:05:47.409Z,25.60
2018-08-30T05:06:47.394Z,26.80
2018-08-30T05:07:47.381Z,26.10
2018-08-30T05:08:47.372Z,25.50
2018-08-30T05:09:47.354Z,26.00
2018-08-30T05:10:47.349Z,26.90
2018-08-30T05:11:47.325Z,27.00
2018-08-30T05:12:47.312Z,26.30
2018-08-30T05:13:47.301Z,26.20
2018-08-30T05:14:47.289Z,25.80
2018-08-30T05:15:47.276Z,26.00
2018-08-30T05:16:47.259Z,24.90
2018-08-30T05:17:47.250Z,26.00
2018-08-30T05:18:47.235Z,24.80
2018-08-30T05:19:47.217Z,25.70
2018-08-30T05:20:47.225Z,25.60
2018-08-30T05:21:47.196Z,25.50
2018-08-30T05:22:47.177Z,25.10
2018-08-30T05:23:47.168Z,25.90
2018-08-30T05:24:47.154Z,24.90
2018-08-30T05:25:47.137Z,25.80
2018-08-30T05:26:47.122Z,24.90
2018-08-30T05:27:47.112Z,25.00
2018-08-30T05:28:47.105Z,24.60
2018-08-30T05:29:47.184Z,23.70
2018-08-30T05:30:47.084Z,24.70
2018-08-30T05:31:47.059Z,25.10
2018-08-30T05:32:47.041Z,24.40
2018-08-30T05:33:47.030Z,23.40
2018-08-30T05:34:47.019Z,24.30
2018-08-30T05:35:47.042Z,25.20
2018-08-30T05:36:46.992Z,24.70
2018-08-30T05:37:46.974Z,24.10
2018-08-30T05:38:46.961Z,23.90
2018-08-30T05:39:46.956Z,23.70
2018-08-30T05:40:46.937Z,23.40
2018-08-30T05:41:46.921Z,24.70
2018-08-30T05:42:46.908Z,24.60
2018-08-30T05:43:46.891Z,23.20
2018-08-30T05:44:46.987Z,23.60
2018-08-30T05:45:46.866Z,23.10
2018-08-30T05:46:46.852Z,23.70
2018-08-30T05:47:46.846Z,23.40
2018-08-30T05:48:46.823Z,23.80
2018-08-30T05:49:46.809Z,24.00
2018-08-30T05:50:46.795Z,23.30
2018-08-30T05:51:46.784Z,22.70
2018-08-30T05:52:46.771Z,23.90
2018-08-30T05:53:46.757Z,22.40
2018-08-30T05:54:46.749Z,22.00
2018-08-30T05:55:46.727Z,22.80
2018-08-30T05:56:46.735Z,22.40
2018-08-30T05:57:46.700Z,21.80
2018-08-30T05:58:46.690Z,23.20
2018-08-30T05:59:46.676Z,22.40
2018-08-30T06:00:46.658Z,23.00
2018-08-30T06:01:46.647Z,21.80
2018-08-30T06:02:46.642Z,22.80
2018-08-30T06:03:46.618Z,21.80
2018-08-30T06:04:46.613Z,22.20
2018-08-30T06:05:46.592Z,22.50
2018-08-30T06:06:46.583Z,22.60
2018-08-30T06:07:46.562Z,22.40
2018-08-30T06:08:46.551Z,21.80
2018-08-30T06:09:46.537Z,21.40
2018-08-30T06:10:46.526Z,21.40
2018-08-30T06:11:46.510Z,22.00
2018-08-30T06:12:46.496Z,21.40
2018-08-30T06:13:46.481Z,20.80
2018-08-30T06:14:46.471Z,21.80
2018-08-30T06:15:46.455Z,19.50
2018-08-30T06:16:46.449Z,20.80
2018-08-30T06:17:46.429Z,19.90
2018-08-30T06:18:46.414Z,21.10
2018-08-30T06:19:46.402Z,19.20
2018-08-30T06:20:46.390Z,20.50
2018-08-30T06:21:46.374Z,19.90
2018-08-30T06:22:46.359Z,19.80
2018-08-30T06:23:46.347Z,19.60
2018-08-30T06:24:46.335Z,19.70
2018-08-30T06:25:46.324Z,19.80
2018-08-30T06:26:46.371Z,18.00
2018-08-30T06:27:46.293Z,18.00
2018-08-30T06:28:46.279Z,19.00
2018-08-30T06:29:46.272Z,18.10
2018-08-30T06:30:46.252Z,17.30
2018-08-30T06:31:46.238Z,19.20
2018-08-30T06:32:46.281Z,18.50
2018-08-30T06:33:46.213Z,18.00
2018-08-30T06:34:46.247Z,18.20
2018-08-30T06:35:46.206Z,17.90
2018-08-30T06:36:46.173Z,17.90
2018-08-30T06:37:46.165Z,18.00
2018-08-30T06:38:46.182Z,18.40
2018-08-30T06:40:16.887Z,16.20
2018-08-30T06:40:46.289Z,17.50
2018-08-30T06:41:46.158Z,16.90
2018-08-30T06:42:46.101Z,16.60
2018-08-30T06:43:46.092Z,17.10
2018-08-30T06:44:46.067Z,17.50
2018-08-30T06:45:46.055Z,16.70
2018-08-30T06:46:46.044Z,16.90
2018-08-30T06:47:46.029Z,17.20
2018-08-30T06:48:46.021Z,16.00
2018-08-30T06:49:46.004Z,15.10
2018-08-30T06:50:45.994Z,16.60
2018-08-30T06:51:45.979Z,15.70
2018-08-30T06:52:45.961Z,15.00
2018-08-30T06:53:45.951Z,15.90
2018-08-30T06:54:45.939Z,15.70
2018-08-30T06:55:45.922Z,14.60
2018-08-30T06:56:45.909Z,15.40
2018-08-30T06:57:45.897Z,15.10
2018-08-30T06:58:45.882Z,16.00
2018-08-30T06:59:45.879Z,14.90
2018-08-30T07:00:45.857Z,14.40
2018-08-30T07:01:45.847Z,14.00
2018-08-30T07:02:45.828Z,13.90
2018-08-30T07:03:45.820Z,13.50
2018-08-30T07:04:45.807Z,13.50
2018-08-30T07:05:45.794Z,14.00
2018-08-30T07:06:45.778Z,13.20
2018-08-30T07:07:45.765Z,13.60
2018-08-30T07:08:45.755Z,13.20
2018-08-30T07:09:45.742Z,12.80
2018-08-30T07:10:45.726Z,13.70
2018-08-30T07:11:45.716Z,12.90
2018-08-30T07:12:45.717Z,12.20
2018-08-30T07:13:45.688Z,12.60
2018-08-30T07:14:45.759Z,12.90
2018-08-30T07:15:45.663Z,12.60
2018-08-30T07:16:45.650Z,13.20
2018-08-30T07:17:45.635Z,13.60
2018-08-30T07:18:45.624Z,13.40
2018-08-30T07:19:45.608Z,12.70
2018-08-30T07:20:45.600Z,13.50
2018-08-30T07:21:45.586Z,12.70
2018-08-30T07:22:45.570Z,12.40
2018-08-30T07:23:45.556Z,12.50
2018-08-30T07:24:45.546Z,13.20
2018-08-30T07:25:45.539Z,13.20
2018-08-30T07:26:45.513Z,12.60
2018-08-30T07:27:45.505Z,13.10
2018-08-30T07:28:45.498Z,12.90
2018-08-30T07:29:45.479Z,12.20
2018-08-30T07:30:45.468Z,12.30
2018-08-30T07:31:45.458Z,11.60
2018-08-30T07:32:45.442Z,12.40
2018-08-30T07:33:45.433Z,12.00
2018-08-30T07:34:45.457Z,12.20
2018-08-30T07:35:45.406Z,11.50
2018-08-30T07:36:45.390Z,11.60
2018-08-30T07:37:45.378Z,12.40
2018-08-30T07:38:45.369Z,12.20
2018-08-30T07:39:45.353Z,11.40
2018-08-30T07:40:45.340Z,10.90
2018-08-30T07:41:45.341Z,11.10
2018-08-30T07:42:45.398Z,10.70
2018-08-30T07:43:45.337Z,10.80
2018-08-30T07:44:45.301Z,11.30
2018-08-30T07:45:45.288Z,11.10
2018-08-30T07:46:45.281Z,10.60
2018-08-30T07:47:45.268Z,10.20
2018-08-30T07:48:45.253Z,10.40
2018-08-30T07:49:45.243Z,9.20
2018-08-30T07:50:45.240Z,10.00
2018-08-30T07:51:45.228Z,9.30
2018-08-30T07:52:45.217Z,8.60
2018-08-30T07:53:45.213Z,8.70
2018-08-30T07:54:45.198Z,8.80
2018-08-30T07:55:45.194Z,9.50
2018-08-30T07:56:45.184Z,8.60
2018-08-30T07:57:45.179Z,8.90
2018-08-30T07:58:45.187Z,8.70
2018-08-30T07:59:45.159Z,8.50
2018-08-30T08:00:45.157Z,8.00
2018-08-30T08:01:45.150Z,8.00
2018-08-30T08:02:45.137Z,7.90
2018-08-30T08:03:45.135Z,8.20
2018-08-30T08:04:45.122Z,8.00
2018-08-30T08:05:45.118Z,7.40
2018-08-30T08:06:45.110Z,7.90
2018-08-30T08:07:45.110Z,7.60
2018-08-30T08:08:45.119Z,7.50
2018-08-30T08:09:45.089Z,7.00
2018-08-30T08:10:45.082Z,7.80
2018-08-30T08:11:45.082Z,8.50
2018-08-30T08:12:45.157Z,7.70
2018-08-30T08:13:45.061Z,8.10
2018-08-30T08:14:45.056Z,7.30
2018-08-30T08:15:45.056Z,7.80
2018-08-30T08:16:45.046Z,7.80
2018-08-30T08:17:45.034Z,7.80
2018-08-30T08:18:45.039Z,7.90
2018-08-30T08:19:45.020Z,7.60
2018-08-30T08:20:45.016Z,7.70
2018-08-30T08:21:45.007Z,7.20
2018-08-30T08:22:44.998Z,6.60
2018-08-30T08:23:44.996Z,7.40
2018-08-30T08:24:45.012Z,7.20
2018-08-30T08:25:44.980Z,7.70
2018-08-30T08:26:44.973Z,7.60
2018-08-30T08:27:44.965Z,7.30
2018-08-30T08:28:44.960Z,7.30
2018-08-30T08:29:44.949Z,7.00
2018-08-30T08:30:44.942Z,7.90
2018-08-30T08:31:44.937Z,6.80
2018-08-30T08:32:44.934Z,6.80
2018-08-30T08:33:44.930Z,6.40
2018-08-30T08:34:44.929Z,7.00
2018-08-30T08:35:44.955Z,7.10
2018-08-30T08:36:44.904Z,7.10
2018-08-30T08:37:44.896Z,7.20
2018-08-30T08:38:44.891Z,7.30
2018-08-30T08:39:44.885Z,6.70
2018-08-30T08:40:44.878Z,7.20
2018-08-30T08:41:44.875Z,6.90
2018-08-30T08:42:44.867Z,7.00
2018-08-30T08:43:44.865Z,6.80
2018-08-30T08:44:44.863Z,6.90
2018-08-30T08:45:44.860Z,6.50
2018-08-30T08:46:44.845Z,7.10
2018-08-30T08:47:44.852Z,7.00
2018-08-30T08:48:44.842Z,7.00
2018-08-30T08:49:44.835Z,7.30
2018-08-30T08:50:44.830Z,6.50
2018-08-30T08:51:44.828Z,6.50
2018-08-30T08:52:44.820Z,5.90
2018-08-30T08:53:44.819Z,5.90
2018-08-30T08:54:44.811Z,6.80
2018-08-30T08:55:44.805Z,6.40
2018-08-30T08:56:44.799Z,6.70
2018-08-30T08:57:44.796Z,6.70
2018-08-30T08:58:44.821Z,6.40
2018-08-30T08:59:44.787Z,6.60
2018-08-30T09:00:44.783Z,6.50
2018-08-30T09:01:44.782Z,6.80
2018-08-30T09:02:44.771Z,6.20
2018-08-30T09:03:44.772Z,5.80
2018-08-30T09:04:44.763Z,6.70
2018-08-30T09:05:44.758Z,5.80
2018-08-30T09:06:44.798Z,6.20
2018-08-30T09:07:44.878Z,6.60
2018-08-30T09:08:44.750Z,5.80
2018-08-30T09:09:44.745Z,6.30
2018-08-30T09:10:44.737Z,6.60
2018-08-30T09:11:44.739Z,6.60
2018-08-30T09:12:44.732Z,6.70
2018-08-30T09:13:44.734Z,6.50
2018-08-30T09:14:44.728Z,6.00
2018-08-30T09:15:44.721Z,6.70
2018-08-30T09:16:44.721Z,6.70
2018-08-30T09:17:44.714Z,6.30
2018-08-30T09:18:44.714Z,6.00
2018-08-30T09:19:44.712Z,6.90
2018-08-30T09:20:44.711Z,6.40
2018-08-30T09:21:44.708Z,6.00
2018-08-30T09:22:44.710Z,6.30
2018-08-30T09:23:44.698Z,6.30
2018-08-30T09:24:44.704Z,6.40
2018-08-30T09:25:44.693Z,5.80
2018-08-30T09:26:44.738Z,6.30
2018-08-30T09:27:44.686Z,6.00
2018-08-30T09:28:44.684Z,5.80
2018-08-30T09:29:44.684Z,5.80
2018-08-30T09:30:44.675Z,5.60
2018-08-30T09:31:44.673Z,5.50
2018-08-30T09:32:44.680Z,5.90
2018-08-30T09:33:44.698Z,6.20
2018-08-30T09:34:44.675Z,5.90
2018-08-30T09:35:44.657Z,5.70
2018-08-30T09:36:44.668Z,5.70
2018-08-30T09:37:44.653Z,5.60
2018-08-30T09:38:44.647Z,5.70
2018-08-30T09:39:44.645Z,6.20
2018-08-30T09:40:44.641Z,6.00
2018-08-30T09:41:44.632Z,5.90
2018-08-30T09:42:44.632Z,6.10
2018-08-30T09:43:44.674Z,5.70
2018-08-30T09:44:44.622Z,5.90
2018-08-30T09:45:44.626Z,6.10
2018-08-30T09:46:44.609Z,6.30
2018-08-30T09:47:44.605Z,6.20
2018-08-30T09:48:44.598Z,6.40
2018-08-30T09:49:44.641Z,5.80
2018-08-30T09:50:44.598Z,5.90
2018-08-30T09:51:44.578Z,5.90
2018-08-30T09:52:44.571Z,6.10
2018-08-30T09:53:44.564Z,6.00
2018-08-30T09:54:44.554Z,6.00
2018-08-30T09:55:44.568Z,5.80
2018-08-30T09:56:44.597Z,6.00
2018-08-30T09:57:44.536Z,5.40
2018-08-30T09:58:44.526Z,6.10
2018-08-30T09:59:44.516Z,5.70
2018-08-30T10:00:44.512Z,6.00
2018-08-30T10:01:44.505Z,6.00
2018-08-30T10:02:44.497Z,6.00
2018-08-30T10:03:44.490Z,5.90
2018-08-30T10:04:44.586Z,5.50
2018-08-30T10:05:44.468Z,5.70
2018-08-30T10:06:44.462Z,6.10
2018-08-30T10:07:44.462Z,5.50
2018-08-30T10:08:44.446Z,5.90
2018-08-30T10:09:44.456Z,5.90
2018-08-30T10:10:44.426Z,6.00
2018-08-30T10:11:44.418Z,5.40
2018-08-30T10:12:44.411Z,5.90
2018-08-30T10:13:44.402Z,6.20
2018-08-30T10:14:44.396Z,5.60
2018-08-30T10:15:44.429Z,5.70
2018-08-30T10:16:44.382Z,5.80
2018-08-30T10:17:44.376Z,5.70
2018-08-30T10:18:44.366Z,22.00
2018-08-30T10:19:44.358Z,6.70
2018-08-30T10:20:44.354Z,7.70
2018-08-30T10:21:44.343Z,8.30
2018-08-30T10:22:44.335Z,8.80
2018-08-30T10:23:44.327Z,8.40
2018-08-30T10:24:44.323Z,6.10
2018-08-30T10:25:44.364Z,8.60
2018-08-30T10:26:44.296Z,10.60
2018-08-30T10:27:44.288Z,13.70
2018-08-30T10:28:44.281Z,7.40
2018-08-30T10:29:44.273Z,6.20
2018-08-30T10:30:44.264Z,6.30
2018-08-30T10:31:44.256Z,6.20
2018-08-30T10:32:44.251Z,6.50
2018-08-30T10:33:44.249Z,5.40
2018-08-30T10:34:44.236Z,5.70
2018-08-30T10:35:44.228Z,5.80
2018-08-30T10:36:44.215Z,5.90
2018-08-30T10:37:44.210Z,5.80
2018-08-30T10:38:44.205Z,5.50
2018-08-30T10:39:44.225Z,5.70
2018-08-30T10:40:44.194Z,5.80
2018-08-30T10:41:44.185Z,5.30
2018-08-30T10:42:44.173Z,6.10
2018-08-30T10:43:44.161Z,5.60
2018-08-30T10:44:44.164Z,5.60
2018-08-30T10:45:44.143Z,5.50
2018-08-30T10:46:44.136Z,5.40
2018-08-30T10:47:44.125Z,5.50
2018-08-30T10:48:44.123Z,5.90
2018-08-30T10:49:44.267Z,5.60
2018-08-30T10:50:44.106Z,5.80
2018-08-30T10:51:44.096Z,5.40
2018-08-30T10:52:44.091Z,5.20
2018-08-30T10:53:44.080Z,5.40
2018-08-30T10:54:44.070Z,5.70
2018-08-30T10:55:44.066Z,5.00
2018-08-30T10:56:44.055Z,5.20
2018-08-30T10:57:44.050Z,5.60
2018-08-30T10:58:44.036Z,5.00
2018-08-30T10:59:44.029Z,5.50
2018-08-30T11:00:44.024Z,5.20
2018-08-30T11:01:44.012Z,5.60
2018-08-30T11:02:44.016Z,5.70
2018-08-30T11:03:44.054Z,5.10
2018-08-30T11:04:43.987Z,5.40
2018-08-30T11:05:43.980Z,5.20
2018-08-30T11:06:43.969Z,5.00
2018-08-30T11:07:43.964Z,5.10
2018-08-30T11:08:43.955Z,5.00
2018-08-30T11:09:43.959Z,5.20
2018-08-30T11:10:43.969Z,4.80
2018-08-30T11:11:43.930Z,5.30
2018-08-30T11:12:43.930Z,4.70
2018-08-30T11:13:43.915Z,5.20
2018-08-30T11:14:43.912Z,5.10
2018-08-30T11:15:43.898Z,4.70
2018-08-30T11:16:43.890Z,4.70
2018-08-30T11:17:43.884Z,5.40
2018-08-30T11:18:43.876Z,5.00
2018-08-30T11:19:43.865Z,5.00
2018-08-30T11:20:43.860Z,4.70
2018-08-30T11:21:43.853Z,5.10
2018-08-30T11:22:43.846Z,4.50
2018-08-30T11:23:43.862Z,4.60
2018-08-30T11:24:43.834Z,5.20
2018-08-30T11:25:43.823Z,5.10
2018-08-30T11:26:43.811Z,4.80
2018-08-30T11:27:43.801Z,5.00
2018-08-30T11:28:43.799Z,5.00
2018-08-30T11:29:43.788Z,4.90
2018-08-30T11:30:43.783Z,4.60
2018-08-30T11:31:43.774Z,4.80
2018-08-30T11:32:43.762Z,4.70
2018-08-30T11:33:43.757Z,4.40
2018-08-30T11:34:43.747Z,4.40
2018-08-30T11:35:43.743Z,5.10
2018-08-30T11:36:43.740Z,4.50
2018-08-30T11:37:43.763Z,4.60
2018-08-30T11:38:43.718Z,4.60
2018-08-30T11:39:43.707Z,4.60
2018-08-30T11:40:43.700Z,4.20
2018-08-30T11:41:43.710Z,4.60
2018-08-30T11:42:43.683Z,4.40
2018-08-30T11:43:43.687Z,4.50
2018-08-30T11:44:43.679Z,4.40
2018-08-30T11:45:43.662Z,4.60
2018-08-30T11:46:43.654Z,4.20
2018-08-30T11:47:43.645Z,4.50
2018-08-30T11:48:43.640Z,4.80
2018-08-30T11:49:43.627Z,4.70
2018-08-30T11:50:43.629Z,4.60
2018-08-30T11:51:43.611Z,4.80
2018-08-30T11:52:43.632Z,4.70
2018-08-30T11:53:43.592Z,4.80
2018-08-30T11:54:43.588Z,4.80
2018-08-30T11:55:43.573Z,4.90
2018-08-30T11:56:43.566Z,4.80
2018-08-30T11:57:43.559Z,4.50
2018-08-30T11:58:43.554Z,4.60
2018-08-30T11:59:43.544Z,4.90
2018-08-30T12:00:43.549Z,4.60
2018-08-30T12:01:43.530Z,4.30
2018-08-30T12:02:43.510Z,4.60
2018-08-30T12:03:43.512Z,4.50
2018-08-30T12:04:43.502Z,4.40
2018-08-30T12:05:43.485Z,4.50
2018-08-30T12:06:43.486Z,4.60
2018-08-30T12:07:43.466Z,4.60
2018-08-30T12:08:43.461Z,4.40
2018-08-30T12:09:43.452Z,4.30
2018-08-30T12:10:43.586Z,4.50
2018-08-30T12:11:43.469Z,4.30
2018-08-30T12:12:43.422Z,4.30
2018-08-30T12:13:43.414Z,4.40
2018-08-30T12:14:43.405Z,4.20
2018-08-30T12:15:43.406Z,4.30
2018-08-30T12:16:43.393Z,4.80
2018-08-30T12:17:43.382Z,4.70
2018-08-30T12:18:43.379Z,4.50
2018-08-30T12:19:43.360Z,4.50
2018-08-30T12:20:43.477Z,4.20
2018-08-30T12:21:43.344Z,4.50
2018-08-30T12:22:43.338Z,4.20
2018-08-30T12:23:43.327Z,4.60
2018-08-30T12:24:43.321Z,4.20
2018-08-30T12:25:43.315Z,4.10
2018-08-30T12:26:43.305Z,4.60
2018-08-30T12:27:43.307Z,4.10
2018-08-30T12:28:43.405Z,4.20
2018-08-30T12:29:43.320Z,4.90
2018-08-30T12:30:43.301Z,4.30
2018-08-30T12:31:43.300Z,4.10
2018-08-30T12:32:43.258Z,4.30
2018-08-30T12:33:43.245Z,4.80
2018-08-30T12:34:43.329Z,3.80
2018-08-30T12:35:43.389Z,4.10
2018-08-30T12:36:43.270Z,3.90
2018-08-30T12:37:43.286Z,4.50
2018-08-30T12:38:43.225Z,4.50
2018-08-30T12:39:43.299Z,4.60
2018-08-30T12:40:43.219Z,4.50
2018-08-30T12:41:43.209Z,4.30
2018-08-30T12:42:43.259Z,4.00
2018-08-30T12:43:43.365Z,4.50
2018-08-30T12:44:43.169Z,3.80
2018-08-30T12:45:43.159Z,4.60
2018-08-30T12:46:43.225Z,4.10
2018-08-30T12:47:43.145Z,4.20
2018-08-30T12:48:43.128Z,4.00
2018-08-30T12:49:43.121Z,3.70
2018-08-30T12:50:43.341Z,3.90
2018-08-30T12:51:43.269Z,3.90
2018-08-30T12:52:43.207Z,4.30
2018-08-30T12:53:43.169Z,4.10
2018-08-30T12:54:43.182Z,3.90
2018-08-30T12:55:43.172Z,4.50
2018-08-30T12:56:43.363Z,4.10
2018-08-30T12:57:43.160Z,4.30
2018-08-30T12:58:43.276Z,4.40
2018-08-30T12:59:43.245Z,4.10
2018-08-30T13:00:43.216Z,4.40
2018-08-30T13:01:43.226Z,4.00
2018-08-30T13:02:43.183Z,4.10